Menalon — SXCH — position and weather

sailwx.info

Track history (hours):
 
Tides and Currents Weather Stations Pressure Air Temp Water Temp Dewpoint Dewpoint Depression Visibility Wind Speed Wind Dir Waves Ship Positions

Menalon

Last reported at 2015-Apr-28 07:11 UTC. Time now 2015-Apr-28 19:53 UTC.
Position N 37°53' E 023°16'.

Length 83 m; draft 3.5 m.

Type: Ship (hazmat cat C). MMSI: 239741000.

Date/timePositionNaut miles runAvg speedWind from/ knotsBaromVisibWave heightAir tempDewpointWater temp
2015-Apr-28 07:11N 37°53' E 023°16'710.1
2015-Apr-28 06:33N 37°52' E 023°24'9 9.1
2015-Apr-28 05:33N 37°56' E 023°34'1 0.9
2015-Apr-28 04:33N 37°57' E 023°34'0 0.0
2015-Apr-28 03:33N 37°57' E 023°34'0 0.0
2015-Apr-28 02:33N 37°57' E 023°34'0 0.0
2015-Apr-28 01:33N 37°57' E 023°34'0 0.0
2015-Apr-28 00:33N 37°57' E 023°34'0 0.0
2015-Apr-27 23:33N 37°57' E 023°34'0 0.0
2015-Apr-27 22:33N 37°57' E 023°34'0 0.0
2015-Apr-27 21:33N 37°57' E 023°34'0 0.0
2015-Apr-27 20:34N 37°57' E 023°34'0 0.0
2015-Apr-27 19:33N 37°57' E 023°34'0 0.0
2015-Apr-27 18:34N 37°57' E 023°34'0 0.0
2015-Apr-27 17:33N 37°57' E 023°34'0 0.0
2015-Apr-27 16:33N 37°57' E 023°34'0 0.0
2015-Apr-27 15:33N 37°57' E 023°34'0 0.0
2015-Apr-27 14:34N 37°57' E 023°34'0 0.0
2015-Apr-27 13:33N 37°57' E 023°34'0 0.0
2015-Apr-27 12:33N 37°57' E 023°34'0 0.0
2015-Apr-27 11:33N 37°57' E 023°34'0 0.0
2015-Apr-27 10:33N 37°57' E 023°35'0 0.0
2015-Apr-27 09:34N 37°57' E 023°35'0 0.0
2015-Apr-27 08:33N 37°57' E 023°35'0 0.0
2015-Apr-27 07:33N 37°57' E 023°35'0 0.0
2015-Apr-27 06:34N 37°57' E 023°35'0 0.1
2015-Apr-27 05:34N 37°57' E 023°35'0 0.1
2015-Apr-27 04:34N 37°57' E 023°34'0 0.0
2015-Apr-27 03:33N 37°57' E 023°34'0 0.0
2015-Apr-27 02:33N 37°57' E 023°34'0 0.0
2015-Apr-27 01:33N 37°57' E 023°35'0 0.0
2015-Apr-27 00:33N 37°57' E 023°34'0 0.0
2015-Apr-26 23:34N 37°57' E 023°34'0 0.0
2015-Apr-26 22:34N 37°57' E 023°34'0 0.0
2015-Apr-26 21:33N 37°57' E 023°34'0 0.0
2015-Apr-26 20:33N 37°57' E 023°35'0 0.0
2015-Apr-26 19:33N 37°57' E 023°34'0 0.0
2015-Apr-26 18:33N 37°57' E 023°34'0 0.0
2015-Apr-26 17:33N 37°57' E 023°34'0 0.0
2015-Apr-26 16:34N 37°57' E 023°34'0 0.0
2015-Apr-26 15:33N 37°57' E 023°34'0 0.0
2015-Apr-26 14:34N 37°57' E 023°34'0 0.0
2015-Apr-26 13:34N 37°57' E 023°34'1 0.9
2015-Apr-26 12:34N 37°56' E 023°35'5 4.6
2015-Apr-26 11:33N 37°52' E 023°32'0 0.0
2015-Apr-26 10:33N 37°52' E 023°32'0 0.1
2015-Apr-26 09:33N 37°52' E 023°32'1 0.7
2015-Apr-26 08:34N 37°53' E 023°33'3 3.3
2015-Apr-26 07:34N 37°56' E 023°34'0 0.1
2015-Apr-26 06:33N 37°56' E 023°34'0 0.0
2015-Apr-26 05:34N 37°56' E 023°34'0 0.0
2015-Apr-26 04:34N 37°56' E 023°34'2 1.7
2015-Apr-26 03:33N 37°57' E 023°34'0 0.0
2015-Apr-26 02:34N 37°57' E 023°34'0 0.0
2015-Apr-26 01:33N 37°57' E 023°34'0 0.0
2015-Apr-26 00:33N 37°57' E 023°34'0 0.0
2015-Apr-25 23:33N 37°57' E 023°34'0 0.1
2015-Apr-25 22:34N 37°57' E 023°34'5 5.5
2015-Apr-25 21:33N 37°53' E 023°31'1 1.0
2015-Apr-25 20:33N 37°52' E 023°30'0 0.0
2015-Apr-25 19:34N 37°52' E 023°30'0 0.0
2015-Apr-25 18:33N 37°52' E 023°30'1 0.8
2015-Apr-25 17:33N 37°53' E 023°30'6 5.7
2015-Apr-25 16:34N 37°57' E 023°34'0 0.0
2015-Apr-25 15:33N 37°57' E 023°34'0 0.0
2015-Apr-25 14:33N 37°57' E 023°34'0 0.0
2015-Apr-25 13:33N 37°57' E 023°34'0 0.0
2015-Apr-25 12:34N 37°57' E 023°34'0 0.0
2015-Apr-25 11:32N 37°57' E 023°34'0 0.0
2015-Apr-25 10:34N 37°57' E 023°34'0 0.0
2015-Apr-25 09:34N 37°57' E 023°34'2 1.6
2015-Apr-25 08:34N 37°57' E 023°36'0 0.0
2015-Apr-25 07:33N 37°57' E 023°36'0 0.0
2015-Apr-25 06:33N 37°57' E 023°36'0 0.0
2015-Apr-25 05:34N 37°57' E 023°36'2 1.8
2015-Apr-25 04:33N 37°57' E 023°34'0 0.0
2015-Apr-25 03:33N 37°57' E 023°34'0 0.0
2015-Apr-25 02:33N 37°57' E 023°34'0 0.0
2015-Apr-25 01:33N 37°57' E 023°34'0 0.1
2015-Apr-25 00:34N 37°57' E 023°34'0 0.0
2015-Apr-24 23:33N 37°57' E 023°34'0 0.0
2015-Apr-24 22:33N 37°57' E 023°34'0 0.0
2015-Apr-24 21:33N 37°57' E 023°34'0 0.0
2015-Apr-24 20:33N 37°57' E 023°34'0 0.0
2015-Apr-24 19:34N 37°57' E 023°34'0 0.0
2015-Apr-24 18:33N 37°57' E 023°34'0 0.0
2015-Apr-24 17:33N 37°57' E 023°34'0 0.0
2015-Apr-24 16:33N 37°57' E 023°34'7 6.7
2015-Apr-24 15:34N 37°52' E 023°29'10 9.4
2015-Apr-24 14:28N 37°53' E 023°16'8 6.8
2015-Apr-24 13:13N 37°55' E 023°05'3 0.3
2015-Apr-24 05:11N 37°54' E 023°08'1110.1
2015-Apr-24 04:04N 37°53' E 023°22'5 9.9
2015-Apr-24 03:33N 37°52' E 023°29'6 6.5
2015-Apr-24 02:34N 37°57' E 023°34'0 0.0
2015-Apr-24 01:33N 37°57' E 023°34'0 0.0
2015-Apr-24 00:33N 37°57' E 023°34'0 0.0
2015-Apr-23 23:33N 37°57' E 023°34'0 0.0
2015-Apr-23 22:34N 37°57' E 023°34'0 0.1
2015-Apr-23 21:33N 37°57' E 023°34'0 0.0
2015-Apr-23 20:34N 37°57' E 023°34'0 0.0
2015-Apr-23 19:34N 37°57' E 023°34'0 0.0
2015-Apr-23 18:34N 37°57' E 023°34'0 0.0
2015-Apr-23 17:33N 37°57' E 023°34'0 0.0
2015-Apr-23 16:34N 37°57' E 023°34'0 0.0
2015-Apr-23 15:33N 37°57' E 023°34'0 0.0
2015-Apr-23 14:33N 37°57' E 023°34'0 0.0
2015-Apr-23 13:33N 37°57' E 023°34'0 0.0
2015-Apr-23 12:33N 37°57' E 023°34'0 0.0
2015-Apr-23 11:33N 37°57' E 023°34'0 0.0
2015-Apr-23 10:33N 37°57' E 023°34'0 0.0
2015-Apr-23 09:33N 37°57' E 023°34'0 0.0
2015-Apr-23 08:33N 37°57' E 023°34'0 0.1
2015-Apr-23 07:34N 37°57' E 023°34'0 0.0
2015-Apr-23 06:33N 37°57' E 023°34'0 0.0
2015-Apr-23 05:33N 37°57' E 023°34'0 0.0
2015-Apr-23 04:33N 37°57' E 023°34'0 0.0
2015-Apr-23 03:33N 37°57' E 023°34'0 0.0
2015-Apr-23 02:33N 37°57' E 023°34'0 0.0
2015-Apr-23 01:33N 37°57' E 023°34'0 0.0
2015-Apr-23 00:34N 37°57' E 023°34'0 0.0
2015-Apr-22 23:33N 37°57' E 023°34'0 0.0
2015-Apr-22 22:34N 37°57' E 023°34'0 0.1
2015-Apr-22 21:34N 37°57' E 023°34'0 0.0
2015-Apr-22 20:34N 37°57' E 023°34'0 0.0
2015-Apr-22 19:33N 37°57' E 023°34'0 0.0
2015-Apr-22 18:33N 37°57' E 023°34'0 0.0
2015-Apr-22 17:33N 37°57' E 023°34'0 0.0
2015-Apr-22 16:33N 37°57' E 023°34'0 0.0
2015-Apr-22 15:34N 37°57' E 023°34'0 0.1
2015-Apr-22 14:33N 37°57' E 023°34'0 0.0
2015-Apr-22 13:34N 37°57' E 023°34'0 0.0
2015-Apr-22 12:34N 37°57' E 023°34'0 0.0
2015-Apr-22 11:34N 37°57' E 023°34'0 0.0
2015-Apr-22 10:33N 37°57' E 023°34'0 0.1
2015-Apr-22 09:33N 37°57' E 023°34'0 0.0
2015-Apr-22 08:33N 37°57' E 023°34'0 0.0
2015-Apr-22 07:33N 37°57' E 023°34'0 0.1
2015-Apr-22 06:33N 37°57' E 023°34'0 0.0
2015-Apr-22 05:33N 37°57' E 023°34'0 0.4
2015-Apr-22 04:33N 37°57' E 023°35'6 5.7
2015-Apr-22 03:33N 37°52' E 023°31'0 0.0
2015-Apr-22 02:33N 37°52' E 023°31'0 0.0
2015-Apr-22 01:32N 37°52' E 023°31'0 0.0
2015-Apr-22 00:33N 37°52' E 023°31'0 0.0
2015-Apr-21 23:33N 37°52' E 023°31'0 0.0
2015-Apr-21 22:33N 37°52' E 023°31'0 0.0
2015-Apr-21 21:34N 37°52' E 023°31'0 0.0
2015-Apr-21 20:34N 37°52' E 023°31'0 0.0
2015-Apr-21 19:33N 37°52' E 023°31'0 0.0
2015-Apr-21 18:34N 37°52' E 023°31'1 0.5
2015-Apr-21 17:34N 37°52' E 023°30'6 6.1
2015-Apr-21 16:33N 37°57' E 023°34'0 0.1
2015-Apr-21 15:33N 37°57' E 023°34'0 0.0
2015-Apr-21 14:33N 37°57' E 023°34'0 0.0
2015-Apr-21 13:33N 37°57' E 023°34'0 0.0
2015-Apr-21 12:33N 37°57' E 023°34'0 0.0
2015-Apr-21 11:34N 37°57' E 023°34'0 0.0
2015-Apr-21 10:34N 37°57' E 023°34'0 0.0
2015-Apr-21 09:34N 37°57' E 023°34'0 0.0
2015-Apr-21 08:33N 37°57' E 023°34'0 0.2
2015-Apr-21 07:33N 37°57' E 023°34'4 3.6
2015-Apr-21 06:33N 37°54' E 023°33'0 0.0
2015-Apr-21 05:33N 37°54' E 023°33'0 0.0
2015-Apr-21 04:33N 37°54' E 023°33'3 3.5
2015-Apr-21 03:33N 37°57' E 023°35'4 4.4
2015-Apr-21 02:34N 38°01' E 023°35'0 0.0
2015-Apr-21 01:33N 38°01' E 023°35'0 0.0
2015-Apr-21 00:34N 38°01' E 023°35'0 0.0
2015-Apr-20 23:33N 38°01' E 023°35'1 0.7
2015-Apr-20 22:33N 38°02' E 023°35'0 0.2
2015-Apr-20 21:33N 38°02' E 023°36'0 0.0
2015-Apr-20 20:33N 38°02' E 023°36'0 0.0
2015-Apr-20 19:33N 38°02' E 023°36'0 0.0
2015-Apr-20 18:33N 38°02' E 023°36'0 0.0
2015-Apr-20 17:33N 38°02' E 023°36'0 0.0
2015-Apr-20 16:34N 38°02' E 023°36'0 0.1
2015-Apr-20 15:33N 38°02' E 023°36'0 0.3
2015-Apr-20 14:30N 38°02' E 023°35'0 0.0
2015-Apr-20 13:32N 38°02' E 023°35'0 0.0
2015-Apr-20 12:33N 38°02' E 023°35'0 0.0
2015-Apr-20 11:30N 38°02' E 023°35'0 0.1
2015-Apr-20 10:31N 38°02' E 023°35'4 4.6
2015-Apr-20 09:33N 37°57' E 023°35'0 0.0
2015-Apr-20 08:33N 37°57' E 023°35'0 0.0
2015-Apr-20 07:33N 37°57' E 023°35'0 0.0
2015-Apr-20 06:34N 37°57' E 023°35'1 0.8
2015-Apr-20 05:34N 37°57' E 023°34'0 0.0
2015-Apr-20 04:33N 37°57' E 023°34'0 0.0
2015-Apr-20 03:33N 37°57' E 023°34'0 0.0
2015-Apr-20 02:33N 37°57' E 023°34'0 0.0
2015-Apr-20 01:33N 37°57' E 023°34'0 0.0
2015-Apr-20 00:33N 37°57' E 023°34'0 0.0
2015-Apr-19 23:34N 37°57' E 023°34'0 0.0
2015-Apr-19 22:33N 37°57' E 023°34'0 0.0
2015-Apr-19 21:33N 37°57' E 023°34'0 0.0
2015-Apr-19 20:34N 37°57' E 023°34'0 0.0
2015-Apr-19 19:33N 37°57' E 023°34'0 0.0
2015-Apr-19 18:26N 37°57' E 023°34'0 0.1
2015-Apr-19 17:32N 37°57' E 023°34'0 0.0
2015-Apr-19 16:22N 37°57' E 023°34'0 0.1
2015-Apr-19 15:32N 37°57' E 023°34'0 0.0
2015-Apr-19 14:32N 37°57' E 023°34'0 0.0
2015-Apr-19 13:34N 37°57' E 023°34'0 0.0
2015-Apr-19 12:33N 37°57' E 023°34'0 0.0
2015-Apr-19 11:32N 37°57' E 023°34'0 0.1
2015-Apr-19 10:33N 37°57' E 023°34'6 5.9
2015-Apr-19 09:33N 37°52' E 023°31'0 0.1
2015-Apr-19 08:33N 37°52' E 023°31'0 0.2
2015-Apr-19 07:33N 37°52' E 023°30'0 0.0
2015-Apr-19 06:33N 37°52' E 023°30'6 5.9
2015-Apr-19 05:32N 37°57' E 023°35'0 0.4
2015-Apr-19 04:33N 37°57' E 023°34'0 0.0
2015-Apr-19 03:31N 37°57' E 023°34'0 0.0
2015-Apr-19 02:33N 37°57' E 023°34'0 0.0
2015-Apr-19 01:19N 37°57' E 023°34'0 0.0
2015-Apr-19 00:29N 37°57' E 023°34'0 0.0
2015-Apr-18 23:33N 37°57' E 023°34'0 0.0
2015-Apr-18 22:34N 37°57' E 023°34'0 0.0
2015-Apr-18 21:34N 37°57' E 023°34'0 0.0
2015-Apr-18 20:34N 37°57' E 023°34'0 0.0
2015-Apr-18 19:34N 37°57' E 023°34'0 0.0
2015-Apr-18 18:34N 37°57' E 023°34'0 0.0
2015-Apr-18 17:34N 37°57' E 023°34'0 0.0
2015-Apr-18 16:33N 37°57' E 023°34'0 0.0
2015-Apr-18 15:33N 37°57' E 023°34'0 0.0
2015-Apr-18 14:33N 37°57' E 023°34'0 0.0
2015-Apr-18 13:34N 37°57' E 023°34'0 0.0
2015-Apr-18 12:34N 37°57' E 023°34'0 0.0
2015-Apr-18 11:34N 37°57' E 023°34'0 0.0
2015-Apr-18 10:33N 37°57' E 023°34'0 0.0
2015-Apr-18 09:33N 37°57' E 023°34'0 0.0
2015-Apr-18 08:34N 37°57' E 023°34'0 0.0
2015-Apr-18 07:33N 37°57' E 023°34'  
Track history (hours):
 
Tides and Currents Weather Stations Pressure Air Temp Water Temp Dewpoint Dewpoint Depression Visibility Wind Speed Wind Dir Waves Ship Positions

Menalon

Last reported at 2015-Apr-28 07:11 UTC. Time now 2015-Apr-28 19:53 UTC.
Position N 37°53' E 023°16'.

Length 83 m; draft 3.5 m.

Type: Ship (hazmat cat C). MMSI: 239741000.

Date/timePositionNaut miles runAvg speedWind from/ knotsBaromVisibWave heightAir tempDewpointWater temp
2015-Apr-28 07:11N 37°53' E 023°16'710.1
2015-Apr-28 06:33N 37°52' E 023°24'9 9.1
2015-Apr-28 05:33N 37°56' E 023°34'1 0.9
2015-Apr-28 04:33N 37°57' E 023°34'0 0.0
2015-Apr-28 03:33N 37°57' E 023°34'0 0.0
2015-Apr-28 02:33N 37°57' E 023°34'0 0.0
2015-Apr-28 01:33N 37°57' E 023°34'0 0.0
2015-Apr-28 00:33N 37°57' E 023°34'0 0.0
2015-Apr-27 23:33N 37°57' E 023°34'0 0.0
2015-Apr-27 22:33N 37°57' E 023°34'0 0.0
2015-Apr-27 21:33N 37°57' E 023°34'0 0.0
2015-Apr-27 20:34N 37°57' E 023°34'0 0.0
2015-Apr-27 19:33N 37°57' E 023°34'0 0.0
2015-Apr-27 18:34N 37°57' E 023°34'0 0.0
2015-Apr-27 17:33N 37°57' E 023°34'0 0.0
2015-Apr-27 16:33N 37°57' E 023°34'0 0.0
2015-Apr-27 15:33N 37°57' E 023°34'0 0.0
2015-Apr-27 14:34N 37°57' E 023°34'0 0.0
2015-Apr-27 13:33N 37°57' E 023°34'0 0.0
2015-Apr-27 12:33N 37°57' E 023°34'0 0.0
2015-Apr-27 11:33N 37°57' E 023°34'0 0.0
2015-Apr-27 10:33N 37°57' E 023°35'0 0.0
2015-Apr-27 09:34N 37°57' E 023°35'0 0.0
2015-Apr-27 08:33N 37°57' E 023°35'0 0.0
2015-Apr-27 07:33N 37°57' E 023°35'0 0.0
2015-Apr-27 06:34N 37°57' E 023°35'0 0.1
2015-Apr-27 05:34N 37°57' E 023°35'0 0.1
2015-Apr-27 04:34N 37°57' E 023°34'0 0.0
2015-Apr-27 03:33N 37°57' E 023°34'0 0.0
2015-Apr-27 02:33N 37°57' E 023°34'0 0.0
2015-Apr-27 01:33N 37°57' E 023°35'0 0.0
2015-Apr-27 00:33N 37°57' E 023°34'0 0.0
2015-Apr-26 23:34N 37°57' E 023°34'0 0.0
2015-Apr-26 22:34N 37°57' E 023°34'0 0.0
2015-Apr-26 21:33N 37°57' E 023°34'0 0.0
2015-Apr-26 20:33N 37°57' E 023°35'0 0.0
2015-Apr-26 19:33N 37°57' E 023°34'0 0.0
2015-Apr-26 18:33N 37°57' E 023°34'0 0.0
2015-Apr-26 17:33N 37°57' E 023°34'0 0.0
2015-Apr-26 16:34N 37°57' E 023°34'0 0.0
2015-Apr-26 15:33N 37°57' E 023°34'0 0.0
2015-Apr-26 14:34N 37°57' E 023°34'0 0.0
2015-Apr-26 13:34N 37°57' E 023°34'1 0.9
2015-Apr-26 12:34N 37°56' E 023°35'5 4.6
2015-Apr-26 11:33N 37°52' E 023°32'0 0.0
2015-Apr-26 10:33N 37°52' E 023°32'0 0.1
2015-Apr-26 09:33N 37°52' E 023°32'1 0.7
2015-Apr-26 08:34N 37°53' E 023°33'3 3.3
2015-Apr-26 07:34N 37°56' E 023°34'0 0.1
2015-Apr-26 06:33N 37°56' E 023°34'0 0.0
2015-Apr-26 05:34N 37°56' E 023°34'0 0.0
2015-Apr-26 04:34N 37°56' E 023°34'2 1.7
2015-Apr-26 03:33N 37°57' E 023°34'0 0.0
2015-Apr-26 02:34N 37°57' E 023°34'0 0.0
2015-Apr-26 01:33N 37°57' E 023°34'0 0.0
2015-Apr-26 00:33N 37°57' E 023°34'0 0.0
2015-Apr-25 23:33N 37°57' E 023°34'0 0.1
2015-Apr-25 22:34N 37°57' E 023°34'5 5.5
2015-Apr-25 21:33N 37°53' E 023°31'1 1.0
2015-Apr-25 20:33N 37°52' E 023°30'0 0.0
2015-Apr-25 19:34N 37°52' E 023°30'0 0.0
2015-Apr-25 18:33N 37°52' E 023°30'1 0.8
2015-Apr-25 17:33N 37°53' E 023°30'6 5.7
2015-Apr-25 16:34N 37°57' E 023°34'0 0.0
2015-Apr-25 15:33N 37°57' E 023°34'0 0.0
2015-Apr-25 14:33N 37°57' E 023°34'0 0.0
2015-Apr-25 13:33N 37°57' E 023°34'0 0.0
2015-Apr-25 12:34N 37°57' E 023°34'0 0.0
2015-Apr-25 11:32N 37°57' E 023°34'0 0.0
2015-Apr-25 10:34N 37°57' E 023°34'0 0.0
2015-Apr-25 09:34N 37°57' E 023°34'2 1.6
2015-Apr-25 08:34N 37°57' E 023°36'0 0.0
2015-Apr-25 07:33N 37°57' E 023°36'0 0.0
2015-Apr-25 06:33N 37°57' E 023°36'0 0.0
2015-Apr-25 05:34N 37°57' E 023°36'2 1.8
2015-Apr-25 04:33N 37°57' E 023°34'0 0.0
2015-Apr-25 03:33N 37°57' E 023°34'0 0.0
2015-Apr-25 02:33N 37°57' E 023°34'0 0.0
2015-Apr-25 01:33N 37°57' E 023°34'0 0.1
2015-Apr-25 00:34N 37°57' E 023°34'0 0.0
2015-Apr-24 23:33N 37°57' E 023°34'0 0.0
2015-Apr-24 22:33N 37°57' E 023°34'0 0.0
2015-Apr-24 21:33N 37°57' E 023°34'0 0.0
2015-Apr-24 20:33N 37°57' E 023°34'0 0.0
2015-Apr-24 19:34N 37°57' E 023°34'0 0.0
2015-Apr-24 18:33N 37°57' E 023°34'0 0.0
2015-Apr-24 17:33N 37°57' E 023°34'0 0.0
2015-Apr-24 16:33N 37°57' E 023°34'7 6.7
2015-Apr-24 15:34N 37°52' E 023°29'10 9.4
2015-Apr-24 14:28N 37°53' E 023°16'8 6.8
2015-Apr-24 13:13N 37°55' E 023°05'3 0.3
2015-Apr-24 05:11N 37°54' E 023°08'1110.1
2015-Apr-24 04:04N 37°53' E 023°22'5 9.9
2015-Apr-24 03:33N 37°52' E 023°29'6 6.5
2015-Apr-24 02:34N 37°57' E 023°34'0 0.0
2015-Apr-24 01:33N 37°57' E 023°34'0 0.0
2015-Apr-24 00:33N 37°57' E 023°34'0 0.0
2015-Apr-23 23:33N 37°57' E 023°34'0 0.0
2015-Apr-23 22:34N 37°57' E 023°34'0 0.1
2015-Apr-23 21:33N 37°57' E 023°34'0 0.0
2015-Apr-23 20:34N 37°57' E 023°34'0 0.0
2015-Apr-23 19:34N 37°57' E 023°34'0 0.0
2015-Apr-23 18:34N 37°57' E 023°34'0 0.0
2015-Apr-23 17:33N 37°57' E 023°34'0 0.0
2015-Apr-23 16:34N 37°57' E 023°34'0 0.0
2015-Apr-23 15:33N 37°57' E 023°34'0 0.0
2015-Apr-23 14:33N 37°57' E 023°34'0 0.0
2015-Apr-23 13:33N 37°57' E 023°34'0 0.0
2015-Apr-23 12:33N 37°57' E 023°34'0 0.0
2015-Apr-23 11:33N 37°57' E 023°34'0 0.0
2015-Apr-23 10:33N 37°57' E 023°34'0 0.0
2015-Apr-23 09:33N 37°57' E 023°34'0 0.0
2015-Apr-23 08:33N 37°57' E 023°34'0 0.1
2015-Apr-23 07:34N 37°57' E 023°34'0 0.0
2015-Apr-23 06:33N 37°57' E 023°34'0 0.0
2015-Apr-23 05:33N 37°57' E 023°34'0 0.0
2015-Apr-23 04:33N 37°57' E 023°34'0 0.0
2015-Apr-23 03:33N 37°57' E 023°34'0 0.0
2015-Apr-23 02:33N 37°57' E 023°34'0 0.0
2015-Apr-23 01:33N 37°57' E 023°34'0 0.0
2015-Apr-23 00:34N 37°57' E 023°34'0 0.0
2015-Apr-22 23:33N 37°57' E 023°34'0 0.0
2015-Apr-22 22:34N 37°57' E 023°34'0 0.1
2015-Apr-22 21:34N 37°57' E 023°34'0 0.0
2015-Apr-22 20:34N 37°57' E 023°34'0 0.0
2015-Apr-22 19:33N 37°57' E 023°34'0 0.0
2015-Apr-22 18:33N 37°57' E 023°34'0 0.0
2015-Apr-22 17:33N 37°57' E 023°34'0 0.0
2015-Apr-22 16:33N 37°57' E 023°34'0 0.0
2015-Apr-22 15:34N 37°57' E 023°34'0 0.1
2015-Apr-22 14:33N 37°57' E 023°34'0 0.0
2015-Apr-22 13:34N 37°57' E 023°34'0 0.0
2015-Apr-22 12:34N 37°57' E 023°34'0 0.0
2015-Apr-22 11:34N 37°57' E 023°34'0 0.0
2015-Apr-22 10:33N 37°57' E 023°34'0 0.1
2015-Apr-22 09:33N 37°57' E 023°34'0 0.0
2015-Apr-22 08:33N 37°57' E 023°34'0 0.0
2015-Apr-22 07:33N 37°57' E 023°34'0 0.1
2015-Apr-22 06:33N 37°57' E 023°34'0 0.0
2015-Apr-22 05:33N 37°57' E 023°34'0 0.4
2015-Apr-22 04:33N 37°57' E 023°35'6 5.7
2015-Apr-22 03:33N 37°52' E 023°31'0 0.0
2015-Apr-22 02:33N 37°52' E 023°31'0 0.0
2015-Apr-22 01:32N 37°52' E 023°31'0 0.0
2015-Apr-22 00:33N 37°52' E 023°31'0 0.0
2015-Apr-21 23:33N 37°52' E 023°31'0 0.0
2015-Apr-21 22:33N 37°52' E 023°31'0 0.0
2015-Apr-21 21:34N 37°52' E 023°31'0 0.0
2015-Apr-21 20:34N 37°52' E 023°31'0 0.0
2015-Apr-21 19:33N 37°52' E 023°31'0 0.0
2015-Apr-21 18:34N 37°52' E 023°31'1 0.5
2015-Apr-21 17:34N 37°52' E 023°30'6 6.1
2015-Apr-21 16:33N 37°57' E 023°34'0 0.1
2015-Apr-21 15:33N 37°57' E 023°34'0 0.0
2015-Apr-21 14:33N 37°57' E 023°34'0 0.0
2015-Apr-21 13:33N 37°57' E 023°34'0 0.0
2015-Apr-21 12:33N 37°57' E 023°34'0 0.0
2015-Apr-21 11:34N 37°57' E 023°34'0 0.0
2015-Apr-21 10:34N 37°57' E 023°34'0 0.0
2015-Apr-21 09:34N 37°57' E 023°34'0 0.0
2015-Apr-21 08:33N 37°57' E 023°34'0 0.2
2015-Apr-21 07:33N 37°57' E 023°34'4 3.6
2015-Apr-21 06:33N 37°54' E 023°33'0 0.0
2015-Apr-21 05:33N 37°54' E 023°33'0 0.0
2015-Apr-21 04:33N 37°54' E 023°33'3 3.5
2015-Apr-21 03:33N 37°57' E 023°35'4 4.4
2015-Apr-21 02:34N 38°01' E 023°35'0 0.0
2015-Apr-21 01:33N 38°01' E 023°35'0 0.0
2015-Apr-21 00:34N 38°01' E 023°35'0 0.0
2015-Apr-20 23:33N 38°01' E 023°35'1 0.7
2015-Apr-20 22:33N 38°02' E 023°35'0 0.2
2015-Apr-20 21:33N 38°02' E 023°36'0 0.0
2015-Apr-20 20:33N 38°02' E 023°36'0 0.0
2015-Apr-20 19:33N 38°02' E 023°36'0 0.0
2015-Apr-20 18:33N 38°02' E 023°36'0 0.0
2015-Apr-20 17:33N 38°02' E 023°36'0 0.0
2015-Apr-20 16:34N 38°02' E 023°36'0 0.1
2015-Apr-20 15:33N 38°02' E 023°36'0 0.3
2015-Apr-20 14:30N 38°02' E 023°35'0 0.0
2015-Apr-20 13:32N 38°02' E 023°35'0 0.0
2015-Apr-20 12:33N 38°02' E 023°35'0 0.0
2015-Apr-20 11:30N 38°02' E 023°35'0 0.1
2015-Apr-20 10:31N 38°02' E 023°35'4 4.6
2015-Apr-20 09:33N 37°57' E 023°35'0 0.0
2015-Apr-20 08:33N 37°57' E 023°35'0 0.0
2015-Apr-20 07:33N 37°57' E 023°35'0 0.0
2015-Apr-20 06:34N 37°57' E 023°35'1 0.8
2015-Apr-20 05:34N 37°57' E 023°34'0 0.0
2015-Apr-20 04:33N 37°57' E 023°34'0 0.0
2015-Apr-20 03:33N 37°57' E 023°34'0 0.0
2015-Apr-20 02:33N 37°57' E 023°34'0 0.0
2015-Apr-20 01:33N 37°57' E 023°34'0 0.0
2015-Apr-20 00:33N 37°57' E 023°34'0 0.0
2015-Apr-19 23:34N 37°57' E 023°34'0 0.0
2015-Apr-19 22:33N 37°57' E 023°34'0 0.0
2015-Apr-19 21:33N 37°57' E 023°34'0 0.0
2015-Apr-19 20:34N 37°57' E 023°34'0 0.0
2015-Apr-19 19:33N 37°57' E 023°34'0 0.0
2015-Apr-19 18:26N 37°57' E 023°34'0 0.1
2015-Apr-19 17:32N 37°57' E 023°34'0 0.0
2015-Apr-19 16:22N 37°57' E 023°34'0 0.1
2015-Apr-19 15:32N 37°57' E 023°34'0 0.0
2015-Apr-19 14:32N 37°57' E 023°34'0 0.0
2015-Apr-19 13:34N 37°57' E 023°34'0 0.0
2015-Apr-19 12:33N 37°57' E 023°34'0 0.0
2015-Apr-19 11:32N 37°57' E 023°34'0 0.1
2015-Apr-19 10:33N 37°57' E 023°34'6 5.9
2015-Apr-19 09:33N 37°52' E 023°31'0 0.1
2015-Apr-19 08:33N 37°52' E 023°31'0 0.2
2015-Apr-19 07:33N 37°52' E 023°30'0 0.0
2015-Apr-19 06:33N 37°52' E 023°30'6 5.9
2015-Apr-19 05:32N 37°57' E 023°35'0 0.4
2015-Apr-19 04:33N 37°57' E 023°34'0 0.0
2015-Apr-19 03:31N 37°57' E 023°34'0 0.0
2015-Apr-19 02:33N 37°57' E 023°34'0 0.0
2015-Apr-19 01:19N 37°57' E 023°34'0 0.0
2015-Apr-19 00:29N 37°57' E 023°34'0 0.0
2015-Apr-18 23:33N 37°57' E 023°34'0 0.0
2015-Apr-18 22:34N 37°57' E 023°34'0 0.0
2015-Apr-18 21:34N 37°57' E 023°34'0 0.0
2015-Apr-18 20:34N 37°57' E 023°34'0 0.0
2015-Apr-18 19:34N 37°57' E 023°34'0 0.0
2015-Apr-18 18:34N 37°57' E 023°34'0 0.0
2015-Apr-18 17:34N 37°57' E 023°34'0 0.0
2015-Apr-18 16:33N 37°57' E 023°34'0 0.0
2015-Apr-18 15:33N 37°57' E 023°34'0 0.0
2015-Apr-18 14:33N 37°57' E 023°34'0 0.0
2015-Apr-18 13:34N 37°57' E 023°34'0 0.0
2015-Apr-18 12:34N 37°57' E 023°34'0 0.0
2015-Apr-18 11:34N 37°57' E 023°34'0 0.0
2015-Apr-18 10:33N 37°57' E 023°34'0 0.0
2015-Apr-18 09:33N 37°57' E 023°34'0 0.0
2015-Apr-18 08:34N 37°57' E 023°34'0 0.0
2015-Apr-18 07:33N 37°57' E 023°34'  

Dump ship's entire track history